Nantucket Memorial Airport
KACK : now visible

Airfield :











YOU CAN JOIN US ON...

 
LOGIN :

Register | Disclaimer

   EN    FR    IT 

 









Legend :    VFR   Marginal VFR   IFR   Intensive IFR   Very Intensive IFR
Visi :
Ceiling :
>= 8 km
>= 3000ft
5 to 8 km
1000 to 3000 ft
1500m to 5 km
500 to 1000 ft
800 to 1500m
200 to 500 ft
< 800m
< 200 ft
Symbols :   Thunderstorms  Fog  Heavy snow  Heavy precipitations  Wind > 20 kt






- Airport Elevation : 47 ft
- IATA code : ACK


KACK - Nantucket Memorial

CURRENT METAR :
  • 121553Z 23014G21KT 10SM CLR 24/19 A2973 RMK AO2 SLP066 T02440194 $

EXPIRED METARs :
  • 121453Z 21013KT 10SM CLR 24/20 A2973 RMK AO2 SLP066 T02390200 53008
  • 121353Z 21014KT 10SM CLR 23/20 A2972 RMK AO2 SLP062 T02330200

TAF KACK
Valid from the 12 at 15:00 until the 13 at 12:00 UTC


121444Z 1215/1312 21014KT P6SM SKC
FM130600 22011G19KT P6SM FEW250
FM130900 22009KT 3SM BR FEW020
FM131100 21009KT 4SM BR SCT020
KZBW FIR / North America



MET'MAP, your aeronautical weather chart ! - Copyright ORBIFLY December 2007 - Disclaimer

ORBIFLY MET'MAP TEAM :

Programming & Development : Alexandra Zaïnal
Concept & original design : Baudouin d'Aumeries
Assistance for programming : Marc-Olivier Méhu
Technical & hardware support : Manuel Goepfert

Contact : metmap@orbifly.com




SOURCES & CREDITS :

   NOAA       Earth
Advisory